sensor_id;sensor_type;location;lat;lon;timestamp;pressure;altitude;pressure_sealevel;temperature;humidity
7662;BME280;30314;48.184;11.510;2023-04-02T00:08:05;95140.53;;;7.27;100.00
7662;BME280;30314;48.184;11.510;2023-04-02T00:10:47;95151.25;;;7.30;100.00
7662;BME280;30314;48.184;11.510;2023-04-02T00:15:46;95158.59;;;7.33;100.00
7662;BME280;30314;48.184;11.510;2023-04-02T00:18:17;95148.53;;;7.16;100.00
7662;BME280;30314;48.184;11.510;2023-04-02T00:23:40;95146.91;;;7.21;100.00
7662;BME280;30314;48.184;11.510;2023-04-02T00:26:54;95158.72;;;7.23;100.00
7662;BME280;30314;48.184;11.510;2023-04-02T00:29:15;95149.72;;;7.05;100.00
7662;BME280;30314;48.184;11.510;2023-04-02T00:31:45;95166.53;;;7.04;100.00
7662;BME280;30314;48.184;11.510;2023-04-02T00:34:26;95154.34;;;6.89;100.00
7662;BME280;30314;48.184;11.510;2023-04-02T00:36:54;95176.13;;;7.14;100.00
7662;BME280;30314;48.184;11.510;2023-04-02T00:39:23;95163.44;;;6.97;100.00
7662;BME280;30314;48.184;11.510;2023-04-02T00:41:52;95172.84;;;7.03;100.00
7662;BME280;30314;48.184;11.510;2023-04-02T00:44:36;95169.88;;;7.10;100.00
7662;BME280;30314;48.184;11.510;2023-04-02T00:47:24;95169.72;;;7.01;100.00
7662;BME280;30314;48.184;11.510;2023-04-02T00:52:43;95168.69;;;6.97;100.00
7662;BME280;30314;48.184;11.510;2023-04-02T00:55:34;95168.47;;;6.93;100.00
7662;BME280;30314;48.184;11.510;2023-04-02T00:58:04;95166.47;;;6.85;100.00
7662;BME280;30314;48.184;11.510;2023-04-02T01:00:39;95162.78;;;6.86;100.00
7662;BME280;30314;48.184;11.510;2023-04-02T01:06:10;95175.81;;;6.96;100.00
7662;BME280;30314;48.184;11.510;2023-04-02T01:08:51;95165.25;;;7.01;100.00
7662;BME280;30314;48.184;11.510;2023-04-02T01:23:25;95174.44;;;6.99;100.00
7662;BME280;30314;48.184;11.510;2023-04-02T01:26:07;95175.81;;;6.96;100.00
7662;BME280;30314;48.184;11.510;2023-04-02T01:28:55;95174.97;;;7.01;100.00
7662;BME280;30314;48.184;11.510;2023-04-02T01:31:27;95173.19;;;6.96;100.00
7662;BME280;30314;48.184;11.510;2023-04-02T01:33:55;95175.41;;;6.84;100.00
7662;BME280;30314;48.184;11.510;2023-04-02T01:36:42;95177.88;;;6.99;100.00
7662;BME280;30314;48.184;11.510;2023-04-02T01:42:04;95184.50;;;6.92;100.00
7662;BME280;30314;48.184;11.510;2023-04-02T01:45:09;95192.38;;;6.92;100.00
7662;BME280;30314;48.184;11.510;2023-04-02T01:47:37;95193.16;;;6.92;100.00
7662;BME280;30314;48.184;11.510;2023-04-02T01:52:41;95194.50;;;6.89;100.00
7662;BME280;30314;48.184;11.510;2023-04-02T01:55:11;95180.66;;;6.84;100.00
7662;BME280;30314;48.184;11.510;2023-04-02T01:57:41;95197.13;;;6.89;100.00
7662;BME280;30314;48.184;11.510;2023-04-02T02:00:13;95190.03;;;6.90;100.00
7662;BME280;30314;48.184;11.510;2023-04-02T02:02:46;95204.44;;;6.93;100.00
7662;BME280;30314;48.184;11.510;2023-04-02T02:05:17;95203.44;;;6.88;100.00
7662;BME280;30314;48.184;11.510;2023-04-02T02:07:47;95206.00;;;6.94;100.00
7662;BME280;30314;48.184;11.510;2023-04-02T02:10:25;95206.28;;;6.92;100.00
7662;BME280;30314;48.184;11.510;2023-04-02T02:12:53;95213.16;;;6.88;100.00
7662;BME280;30314;48.184;11.510;2023-04-02T02:15:22;95220.19;;;6.93;100.00
7662;BME280;30314;48.184;11.510;2023-04-02T02:17:52;95212.38;;;6.87;100.00
7662;BME280;30314;48.184;11.510;2023-04-02T02:20:21;95221.38;;;7.05;100.00
7662;BME280;30314;48.184;11.510;2023-04-02T02:22:49;95227.28;;;6.92;100.00
7662;BME280;30314;48.184;11.510;2023-04-02T02:25:19;95219.22;;;6.83;100.00
7662;BME280;30314;48.184;11.510;2023-04-02T02:30:43;95223.59;;;6.93;100.00
7662;BME280;30314;48.184;11.510;2023-04-02T02:36:04;95216.56;;;6.88;100.00
7662;BME280;30314;48.184;11.510;2023-04-02T02:38:42;95217.41;;;6.84;100.00
7662;BME280;30314;48.184;11.510;2023-04-02T02:41:32;95232.81;;;6.90;100.00
7662;BME280;30314;48.184;11.510;2023-04-02T02:46:53;95244.25;;;7.05;100.00
7662;BME280;30314;48.184;11.510;2023-04-02T02:49:46;95243.31;;;6.90;100.00
7662;BME280;30314;48.184;11.510;2023-04-02T02:52:20;95225.72;;;6.91;100.00
7662;BME280;30314;48.184;11.510;2023-04-02T02:55:17;95239.72;;;6.81;100.00
7662;BME280;30314;48.184;11.510;2023-04-02T02:58:16;95249.91;;;6.88;100.00
7662;BME280;30314;48.184;11.510;2023-04-02T03:00:55;95254.47;;;6.77;100.00
7662;BME280;30314;48.184;11.510;2023-04-02T03:03:25;95252.34;;;6.79;100.00
7662;BME280;30314;48.184;11.510;2023-04-02T03:06:05;95250.50;;;6.80;100.00
7662;BME280;30314;48.184;11.510;2023-04-02T03:08:38;95241.41;;;6.67;100.00
7662;BME280;30314;48.184;11.510;2023-04-02T03:11:15;95252.13;;;6.70;100.00
7662;BME280;30314;48.184;11.510;2023-04-02T03:13:48;95233.84;;;6.60;100.00
7662;BME280;30314;48.184;11.510;2023-04-02T03:16:31;95256.84;;;6.73;100.00
7662;BME280;30314;48.184;11.510;2023-04-02T03:19:30;95259.22;;;6.70;100.00
7662;BME280;30314;48.184;11.510;2023-04-02T03:22:13;95248.75;;;6.65;100.00
7662;BME280;30314;48.184;11.510;2023-04-02T03:27:33;95271.53;;;6.74;100.00
7662;BME280;30314;48.184;11.510;2023-04-02T03:30:29;95265.72;;;6.77;100.00
7662;BME280;30314;48.184;11.510;2023-04-02T03:33:12;95277.88;;;6.68;100.00
7662;BME280;30314;48.184;11.510;2023-04-02T03:35:48;95274.66;;;6.76;100.00
7662;BME280;30314;48.184;11.510;2023-04-02T03:38:26;95274.81;;;6.56;100.00
7662;BME280;30314;48.184;11.510;2023-04-02T03:41:17;95284.25;;;6.57;100.00
7662;BME280;30314;48.184;11.510;2023-04-02T03:43:50;95283.69;;;6.60;100.00
7662;BME280;30314;48.184;11.510;2023-04-02T03:46:26;95283.44;;;6.61;100.00
7662;BME280;30314;48.184;11.510;2023-04-02T03:49:00;95285.31;;;6.56;100.00
7662;BME280;30314;48.184;11.510;2023-04-02T03:51:33;95286.56;;;6.58;100.00
7662;BME280;30314;48.184;11.510;2023-04-02T03:54:02;95292.94;;;6.52;100.00
7662;BME280;30314;48.184;11.510;2023-04-02T03:56:32;95284.25;;;6.57;100.00
7662;BME280;30314;48.184;11.510;2023-04-02T04:01:52;95294.13;;;6.65;100.00
7662;BME280;30314;48.184;11.510;2023-04-02T04:04:22;95308.88;;;6.61;100.00
7662;BME280;30314;48.184;11.510;2023-04-02T04:06:50;95299.47;;;6.55;100.00
7662;BME280;30314;48.184;11.510;2023-04-02T04:09:35;95284.88;;;6.38;100.00
7662;BME280;30314;48.184;11.510;2023-04-02T04:15:15;95295.00;;;6.55;100.00
7662;BME280;30314;48.184;11.510;2023-04-02T04:20:52;95311.84;;;6.49;100.00
7662;BME280;30314;48.184;11.510;2023-04-02T04:23:36;95317.84;;;6.49;100.00
7662;BME280;30314;48.184;11.510;2023-04-02T04:26:18;95280.13;;;6.40;100.00
7662;BME280;30314;48.184;11.510;2023-04-02T04:29:05;95322.81;;;6.56;100.00
7662;BME280;30314;48.184;11.510;2023-04-02T04:31:43;95331.97;;;6.59;100.00
7662;BME280;30314;48.184;11.510;2023-04-02T04:34:16;95325.22;;;6.47;100.00
7662;BME280;30314;48.184;11.510;2023-04-02T04:36:49;95330.22;;;6.44;100.00
7662;BME280;30314;48.184;11.510;2023-04-02T04:39:33;95337.28;;;6.48;100.00
7662;BME280;30314;48.184;11.510;2023-04-02T04:42:03;95331.78;;;6.45;100.00
7662;BME280;30314;48.184;11.510;2023-04-02T04:44:45;95339.97;;;6.38;100.00
7662;BME280;30314;48.184;11.510;2023-04-02T04:47:25;95347.31;;;6.41;100.00
7662;BME280;30314;48.184;11.510;2023-04-02T04:50:06;95349.63;;;6.43;100.00
7662;BME280;30314;48.184;11.510;2023-04-02T04:52:38;95351.50;;;6.37;100.00
7662;BME280;30314;48.184;11.510;2023-04-02T04:55:28;95363.09;;;6.31;100.00
7662;BME280;30314;48.184;11.510;2023-04-02T04:58:02;95348.38;;;6.35;100.00
7662;BME280;30314;48.184;11.510;2023-04-02T05:00:42;95363.56;;;6.38;100.00
7662;BME280;30314;48.184;11.510;2023-04-02T05:05:49;95360.72;;;6.34;100.00
7662;BME280;30314;48.184;11.510;2023-04-02T05:08:25;95363.50;;;6.48;100.00
7662;BME280;30314;48.184;11.510;2023-04-02T05:11:02;95372.47;;;6.42;100.00
7662;BME280;30314;48.184;11.510;2023-04-02T05:16:32;95382.25;;;6.26;100.00
7662;BME280;30314;48.184;11.510;2023-04-02T05:19:17;95383.56;;;6.24;100.00
7662;BME280;30314;48.184;11.510;2023-04-02T05:25:08;95388.22;;;6.37;100.00
7662;BME280;30314;48.184;11.510;2023-04-02T05:33:05;95396.91;;;6.32;100.00
7662;BME280;30314;48.184;11.510;2023-04-02T05:35:45;95393.50;;;6.27;100.00
7662;BME280;30314;48.184;11.510;2023-04-02T05:38:23;95400.34;;;6.28;100.00
7662;BME280;30314;48.184;11.510;2023-04-02T05:41:00;95395.09;;;6.23;100.00
7662;BME280;30314;48.184;11.510;2023-04-02T05:43:32;95390.41;;;6.19;100.00
7662;BME280;30314;48.184;11.510;2023-04-02T05:46:12;95405.06;;;6.26;100.00
7662;BME280;30314;48.184;11.510;2023-04-02T05:48:40;95395.91;;;6.18;100.00
7662;BME280;30314;48.184;11.510;2023-04-02T05:51:19;95409.69;;;6.49;100.00
7662;BME280;30314;48.184;11.510;2023-04-02T05:53:57;95403.41;;;6.40;100.00
7662;BME280;30314;48.184;11.510;2023-04-02T05:56:45;95406.63;;;6.32;100.00
7662;BME280;30314;48.184;11.510;2023-04-02T05:59:23;95404.81;;;6.22;100.00
7662;BME280;30314;48.184;11.510;2023-04-02T06:02:02;95422.91;;;6.29;100.00
7662;BME280;30314;48.184;11.510;2023-04-02T06:04:56;95427.84;;;6.36;100.00
7662;BME280;30314;48.184;11.510;2023-04-02T06:07:32;95426.50;;;6.43;100.00
7662;BME280;30314;48.184;11.510;2023-04-02T06:10:09;95422.88;;;6.34;100.00
7662;BME280;30314;48.184;11.510;2023-04-02T06:13:00;95430.72;;;6.34;100.00
7662;BME280;30314;48.184;11.510;2023-04-02T06:15:36;95418.16;;;6.26;100.00
7662;BME280;30314;48.184;11.510;2023-04-02T06:18:16;95432.31;;;6.35;100.00
7662;BME280;30314;48.184;11.510;2023-04-02T06:20:46;95426.00;;;6.36;100.00
7662;BME280;30314;48.184;11.510;2023-04-02T06:23:39;95418.13;;;6.36;100.00
7662;BME280;30314;48.184;11.510;2023-04-02T06:29:03;95432.03;;;6.37;100.00
7662;BME280;30314;48.184;11.510;2023-04-02T06:31:37;95437.84;;;6.28;100.00
7662;BME280;30314;48.184;11.510;2023-04-02T06:34:17;95447.47;;;6.48;100.00
7662;BME280;30314;48.184;11.510;2023-04-02T06:37:02;95445.34;;;6.56;100.00
7662;BME280;30314;48.184;11.510;2023-04-02T06:39:32;95448.78;;;6.46;100.00
7662;BME280;30314;48.184;11.510;2023-04-02T06:42:25;95439.63;;;6.38;100.00
7662;BME280;30314;48.184;11.510;2023-04-02T06:45:23;95452.97;;;6.52;100.00
7662;BME280;30314;48.184;11.510;2023-04-02T06:48:15;95467.88;;;6.62;100.00
7662;BME280;30314;48.184;11.510;2023-04-02T06:50:51;95455.31;;;6.54;100.00
7662;BME280;30314;48.184;11.510;2023-04-02T06:53:35;95473.09;;;6.72;100.00
7662;BME280;30314;48.184;11.510;2023-04-02T06:56:54;95467.06;;;6.67;100.00
7662;BME280;30314;48.184;11.510;2023-04-02T06:58:57;95466.53;;;6.75;100.00
7662;BME280;30314;48.184;11.510;2023-04-02T07:01:27;95482.28;;;6.75;100.00
7662;BME280;30314;48.184;11.510;2023-04-02T07:03:56;95494.56;;;6.85;100.00
7662;BME280;30314;48.184;11.510;2023-04-02T07:06:35;95490.03;;;6.96;100.00
7662;BME280;30314;48.184;11.510;2023-04-02T07:09:03;95497.16;;;6.95;100.00
7662;BME280;30314;48.184;11.510;2023-04-02T07:11:31;95506.56;;;7.01;100.00
7662;BME280;30314;48.184;11.510;2023-04-02T07:14:01;95503.16;;;6.96;100.00
7662;BME280;30314;48.184;11.510;2023-04-02T07:16:29;95493.16;;;7.03;100.00
7662;BME280;30314;48.184;11.510;2023-04-02T07:18:56;95503.88;;;7.07;100.00
7662;BME280;30314;48.184;11.510;2023-04-02T07:21:26;95509.94;;;7.07;100.00
7662;BME280;30314;48.184;11.510;2023-04-02T07:23:53;95515.69;;;7.14;100.00
7662;BME280;30314;48.184;11.510;2023-04-02T07:26:25;95496.25;;;7.10;100.00
7662;BME280;30314;48.184;11.510;2023-04-02T07:28:54;95520.81;;;7.35;100.00
7662;BME280;30314;48.184;11.510;2023-04-02T07:31:26;95521.56;;;7.41;100.00
7662;BME280;30314;48.184;11.510;2023-04-02T07:33:55;95529.09;;;7.53;100.00
7662;BME280;30314;48.184;11.510;2023-04-02T07:36:23;95513.38;;;7.47;100.00
7662;BME280;30314;48.184;11.510;2023-04-02T07:38:50;95516.75;;;7.53;100.00
7662;BME280;30314;48.184;11.510;2023-04-02T07:41:18;95525.31;;;7.69;100.00
7662;BME280;30314;48.184;11.510;2023-04-02T07:43:45;95532.38;;;7.74;100.00
7662;BME280;30314;48.184;11.510;2023-04-02T07:46:13;95517.13;;;7.71;100.00
7662;BME280;30314;48.184;11.510;2023-04-02T07:48:47;95525.00;;;7.76;100.00
7662;BME280;30314;48.184;11.510;2023-04-02T07:51:20;95534.72;;;7.75;100.00
7662;BME280;30314;48.184;11.510;2023-04-02T07:53:48;95534.72;;;7.75;100.00
7662;BME280;30314;48.184;11.510;2023-04-02T07:56:19;95514.56;;;7.66;100.00
7662;BME280;30314;48.184;11.510;2023-04-02T07:58:46;95530.69;;;7.88;100.00
7662;BME280;30314;48.184;11.510;2023-04-02T08:01:21;95547.97;;;7.95;100.00
7662;BME280;30314;48.184;11.510;2023-04-02T08:03:53;95517.44;;;7.64;100.00
7662;BME280;30314;48.184;11.510;2023-04-02T08:06:20;95548.53;;;7.92;100.00
7662;BME280;30314;48.184;11.510;2023-04-02T08:08:48;95544.34;;;7.91;100.00
7662;BME280;30314;48.184;11.510;2023-04-02T08:11:15;95545.16;;;7.86;100.00
7662;BME280;30314;48.184;11.510;2023-04-02T08:13:42;95559.28;;;7.95;100.00
7662;BME280;30314;48.184;11.510;2023-04-02T08:16:09;95561.53;;;8.07;100.00
7662;BME280;30314;48.184;11.510;2023-04-02T08:18:36;95570.00;;;8.04;100.00
7662;BME280;30314;48.184;11.510;2023-04-02T08:21:05;95567.50;;;7.83;100.00
7662;BME280;30314;48.184;11.510;2023-04-02T08:23:34;95572.19;;;7.92;100.00
7662;BME280;30314;48.184;11.510;2023-04-02T08:26:01;95552.59;;;7.73;100.00
7662;BME280;30314;48.184;11.510;2023-04-02T08:28:28;95542.56;;;7.81;100.00
7662;BME280;30314;48.184;11.510;2023-04-02T08:30:54;95568.13;;;8.04;100.00
7662;BME280;30314;48.184;11.510;2023-04-02T08:33:21;95572.31;;;8.11;100.00
7662;BME280;30314;48.184;11.510;2023-04-02T08:35:48;95584.84;;;8.19;100.00
7662;BME280;30314;48.184;11.510;2023-04-02T08:38:17;95579.81;;;8.23;100.00
7662;BME280;30314;48.184;11.510;2023-04-02T08:40:52;95576.69;;;8.21;100.00
7662;BME280;30314;48.184;11.510;2023-04-02T08:46:45;95589.13;;;8.39;100.00
7662;BME280;30314;48.184;11.510;2023-04-02T08:49:16;95577.44;;;8.51;100.00
7662;BME280;30314;48.184;11.510;2023-04-02T08:52:19;95593.31;;;8.70;100.00
7662;BME280;30314;48.184;11.510;2023-04-02T08:54:47;95586.94;;;8.76;100.00
7662;BME280;30314;48.184;11.510;2023-04-02T08:57:26;95588.91;;;8.90;100.00
7662;BME280;30314;48.184;11.510;2023-04-02T09:00:21;95600.03;;;9.06;100.00
7662;BME280;30314;48.184;11.510;2023-04-02T09:02:55;95584.97;;;8.87;100.00
7662;BME280;30314;48.184;11.510;2023-04-02T09:05:29;95597.75;;;8.99;100.00
7662;BME280;30314;48.184;11.510;2023-04-02T09:07:59;95600.09;;;9.00;100.00
7662;BME280;30314;48.184;11.510;2023-04-02T09:10:36;95603.72;;;9.05;100.00
7662;BME280;30314;48.184;11.510;2023-04-02T09:13:14;95603.34;;;9.16;100.00
7662;BME280;30314;48.184;11.510;2023-04-02T09:15:43;95561.75;;;9.13;100.00
7662;BME280;30314;48.184;11.510;2023-04-02T09:18:16;95613.81;;;9.46;100.00
7662;BME280;30314;48.184;11.510;2023-04-02T09:20:43;95611.88;;;9.52;100.00
7662;BME280;30314;48.184;11.510;2023-04-02T09:23:17;95628.38;;;9.63;100.00
7662;BME280;30314;48.184;11.510;2023-04-02T09:25:50;95621.72;;;9.65;100.00
7662;BME280;30314;48.184;11.510;2023-04-02T09:28:30;95616.59;;;9.55;100.00
7662;BME280;30314;48.184;11.510;2023-04-02T09:33:40;95627.66;;;9.76;100.00
7662;BME280;30314;48.184;11.510;2023-04-02T09:36:17;95635.34;;;9.72;100.00
7662;BME280;30314;48.184;11.510;2023-04-02T09:38:58;95633.41;;;9.59;100.00
7662;BME280;30314;48.184;11.510;2023-04-02T09:41:28;95633.53;;;9.49;100.00
7662;BME280;30314;48.184;11.510;2023-04-02T09:44:18;95639.88;;;9.48;100.00
7662;BME280;30314;48.184;11.510;2023-04-02T09:49:36;95605.41;;;9.20;100.00
7662;BME280;30314;48.184;11.510;2023-04-02T09:54:37;95633.59;;;9.24;100.00
7662;BME280;30314;48.184;11.510;2023-04-02T09:57:20;95641.88;;;9.37;100.00
7662;BME280;30314;48.184;11.510;2023-04-02T10:03:09;95646.72;;;9.49;100.00
7662;BME280;30314;48.184;11.510;2023-04-02T10:05:43;95638.47;;;9.55;100.00
7662;BME280;30314;48.184;11.510;2023-04-02T10:08:24;95644.81;;;9.54;100.00
7662;BME280;30314;48.184;11.510;2023-04-02T10:10:56;95647.88;;;9.62;100.00
7662;BME280;30314;48.184;11.510;2023-04-02T10:13:30;95648.03;;;9.70;100.00
7662;BME280;30314;48.184;11.510;2023-04-02T10:16:13;95645.03;;;9.96;100.00
7662;BME280;30314;48.184;11.510;2023-04-02T10:18:46;95640.97;;;10.04;100.00
7662;BME280;30314;48.184;11.510;2023-04-02T10:21:17;95652.69;;;10.31;100.00
7662;BME280;30314;48.184;11.510;2023-04-02T10:23:47;95656.03;;;10.37;99.69
7662;BME280;30314;48.184;11.510;2023-04-02T10:29:34;95640.09;;;10.75;97.49
7662;BME280;30314;48.184;11.510;2023-04-02T10:32:23;95652.59;;;10.69;98.64
7662;BME280;30314;48.184;11.510;2023-04-02T10:40:30;95656.16;;;10.46;89.38
7662;BME280;30314;48.184;11.510;2023-04-02T10:51:15;95651.53;;;10.37;94.26
7662;BME280;30314;48.184;11.510;2023-04-02T10:53:57;95659.28;;;10.48;96.72
7662;BME280;30314;48.184;11.510;2023-04-02T10:56:29;95669.44;;;10.40;96.67
7662;BME280;30314;48.184;11.510;2023-04-02T10:59:23;95672.72;;;10.32;95.70
7662;BME280;30314;48.184;11.510;2023-04-02T11:01:52;95662.63;;;10.20;96.70
7662;BME280;30314;48.184;11.510;2023-04-02T11:04:29;95680.41;;;10.14;94.37
7662;BME280;30314;48.184;11.510;2023-04-02T11:07:14;95687.16;;;10.01;98.21
7662;BME280;30314;48.184;11.510;2023-04-02T11:09:46;95669.34;;;9.93;96.91
7662;BME280;30314;48.184;11.510;2023-04-02T11:12:22;95679.91;;;9.93;100.00
7662;BME280;30314;48.184;11.510;2023-04-02T11:14:51;95685.19;;;9.93;100.00
7662;BME280;30314;48.184;11.510;2023-04-02T11:17:20;95685.72;;;9.90;100.00
7662;BME280;30314;48.184;11.510;2023-04-02T11:19:47;95680.09;;;9.97;100.00
7662;BME280;30314;48.184;11.510;2023-04-02T11:22:20;95680.66;;;10.13;95.79
7662;BME280;30314;48.184;11.510;2023-04-02T11:27:20;95696.22;;;10.14;100.00
7662;BME280;30314;48.184;11.510;2023-04-02T11:29:52;95697.44;;;10.22;100.00
7662;BME280;30314;48.184;11.510;2023-04-02T11:42:39;95689.75;;;10.07;100.00
7662;BME280;30314;48.184;11.510;2023-04-02T11:50:33;95695.19;;;10.82;100.00
7662;BME280;30314;48.184;11.510;2023-04-02T11:55:46;95697.69;;;11.20;97.68
7662;BME280;30314;48.184;11.510;2023-04-02T12:04:50;95700.19;;;10.97;95.53
7662;BME280;30314;48.184;11.510;2023-04-02T12:07:56;95705.56;;;11.06;93.69
7662;BME280;30314;48.184;11.510;2023-04-02T12:10:59;95705.03;;;11.23;91.31
7662;BME280;30314;48.184;11.510;2023-04-02T12:13:53;95706.91;;;11.37;91.90
7662;BME280;30314;48.184;11.510;2023-04-02T12:16:24;95713.34;;;11.31;88.67
7662;BME280;30314;48.184;11.510;2023-04-02T12:18:57;95709.63;;;11.18;90.49
7662;BME280;30314;48.184;11.510;2023-04-02T12:21:27;95712.22;;;11.04;89.15
7662;BME280;30314;48.184;11.510;2023-04-02T12:23:57;95713.59;;;11.01;93.39
7662;BME280;30314;48.184;11.510;2023-04-02T12:26:33;95721.91;;;10.94;93.31
7662;BME280;30314;48.184;11.510;2023-04-02T12:29:33;95725.13;;;10.91;90.52
7662;BME280;30314;48.184;11.510;2023-04-02T12:32:01;95727.16;;;10.80;96.24
7662;BME280;30314;48.184;11.510;2023-04-02T12:34:29;95715.16;;;10.55;100.00
7662;BME280;30314;48.184;11.510;2023-04-02T12:36:59;95728.00;;;10.42;100.00
7662;BME280;30314;48.184;11.510;2023-04-02T12:39:31;95729.00;;;10.27;100.00
7662;BME280;30314;48.184;11.510;2023-04-02T12:41:58;95732.88;;;10.16;100.00
7662;BME280;30314;48.184;11.510;2023-04-02T12:44:29;95752.72;;;10.13;100.00
7662;BME280;30314;48.184;11.510;2023-04-02T12:46:57;95736.69;;;9.85;100.00
7662;BME280;30314;48.184;11.510;2023-04-02T12:49:30;95748.16;;;9.76;100.00
7662;BME280;30314;48.184;11.510;2023-04-02T12:52:02;95750.31;;;9.73;100.00
7662;BME280;30314;48.184;11.510;2023-04-02T12:54:34;95732.25;;;9.62;100.00
7662;BME280;30314;48.184;11.510;2023-04-02T12:57:21;95751.78;;;9.61;100.00
7662;BME280;30314;48.184;11.510;2023-04-02T12:59:48;95750.38;;;9.44;100.00
7662;BME280;30314;48.184;11.510;2023-04-02T13:02:22;95750.66;;;9.42;100.00
7662;BME280;30314;48.184;11.510;2023-04-02T13:04:53;95753.00;;;9.44;100.00
7662;BME280;30314;48.184;11.510;2023-04-02T13:07:25;95750.59;;;9.48;100.00
7662;BME280;30314;48.184;11.510;2023-04-02T13:09:58;95762.72;;;9.49;100.00
7662;BME280;30314;48.184;11.510;2023-04-02T13:12:36;95757.84;;;9.37;100.00
7662;BME280;30314;48.184;11.510;2023-04-02T13:15:17;95745.81;;;9.50;100.00
7662;BME280;30314;48.184;11.510;2023-04-02T13:17:47;95752.28;;;9.38;100.00
7662;BME280;30314;48.184;11.510;2023-04-02T13:25:50;95751.38;;;9.24;100.00
7662;BME280;30314;48.184;11.510;2023-04-02T13:28:16;95746.88;;;9.24;100.00
7662;BME280;30314;48.184;11.510;2023-04-02T13:30:43;95766.97;;;9.15;100.00
7662;BME280;30314;48.184;11.510;2023-04-02T13:33:12;95774.88;;;9.20;100.00
7662;BME280;30314;48.184;11.510;2023-04-02T13:35:41;95764.84;;;9.17;100.00
7662;BME280;30314;48.184;11.510;2023-04-02T13:38:08;95737.41;;;8.94;100.00
7662;BME280;30314;48.184;11.510;2023-04-02T13:40:35;95751.91;;;8.91;100.00
7662;BME280;30314;48.184;11.510;2023-04-02T13:43:03;95766.09;;;8.95;100.00
7662;BME280;30314;48.184;11.510;2023-04-02T13:45:36;95752.22;;;8.84;100.00
7662;BME280;30314;48.184;11.510;2023-04-02T13:48:04;95761.34;;;8.97;100.00
7662;BME280;30314;48.184;11.510;2023-04-02T13:50:33;95773.31;;;9.14;100.00
7662;BME280;30314;48.184;11.510;2023-04-02T13:53:05;95774.75;;;9.01;100.00
7662;BME280;30314;48.184;11.510;2023-04-02T13:55:39;95764.75;;;8.98;100.00
7662;BME280;30314;48.184;11.510;2023-04-02T13:58:07;95783.97;;;8.98;100.00
7662;BME280;30314;48.184;11.510;2023-04-02T14:00:35;95780.53;;;8.68;100.00
7662;BME280;30314;48.184;11.510;2023-04-02T14:03:07;95780.88;;;8.56;100.00
7662;BME280;30314;48.184;11.510;2023-04-02T14:11:40;95793.38;;;8.40;100.00
7662;BME280;30314;48.184;11.510;2023-04-02T14:14:35;95789.16;;;8.34;100.00
7662;BME280;30314;48.184;11.510;2023-04-02T14:17:26;95795.75;;;8.37;100.00
7662;BME280;30314;48.184;11.510;2023-04-02T14:23:06;95798.63;;;8.40;100.00
7662;BME280;30314;48.184;11.510;2023-04-02T14:25:58;95803.34;;;8.38;100.00
7662;BME280;30314;48.184;11.510;2023-04-02T14:31:40;95828.38;;;8.36;100.00
7662;BME280;30314;48.184;11.510;2023-04-02T14:34:18;95821.84;;;8.28;100.00
7662;BME280;30314;48.184;11.510;2023-04-02T14:42:53;95825.66;;;7.96;100.00
7662;BME280;30314;48.184;11.510;2023-04-02T14:48:15;95821.50;;;7.84;100.00
7662;BME280;30314;48.184;11.510;2023-04-02T14:50:47;95829.34;;;8.00;100.00
7662;BME280;30314;48.184;11.510;2023-04-02T14:53:21;95827.22;;;7.97;100.00
7662;BME280;30314;48.184;11.510;2023-04-02T14:55:51;95827.75;;;7.99;100.00
7662;BME280;30314;48.184;11.510;2023-04-02T14:58:22;95841.91;;;8.13;100.00
7662;BME280;30314;48.184;11.510;2023-04-02T15:00:59;95846.63;;;8.16;100.00
7662;BME280;30314;48.184;11.510;2023-04-02T15:03:31;95841.88;;;8.18;100.00
7662;BME280;30314;48.184;11.510;2023-04-02T15:06:04;95826.41;;;8.07;100.00
7662;BME280;30314;48.184;11.510;2023-04-02T15:08:50;95834.50;;;8.21;100.00
7662;BME280;30314;48.184;11.510;2023-04-02T15:11:55;95835.84;;;8.13;100.00
7662;BME280;30314;48.184;11.510;2023-04-02T15:14:30;95842.94;;;8.12;100.00
7662;BME280;30314;48.184;11.510;2023-04-02T15:16:59;95849.25;;;8.11;100.00
7662;BME280;30314;48.184;11.510;2023-04-02T15:19:26;95823.53;;;7.98;100.00
7662;BME280;30314;48.184;11.510;2023-04-02T15:30:52;95857.22;;;8.01;100.00
7662;BME280;30314;48.184;11.510;2023-04-02T15:33:58;95859.81;;;8.06;100.00
7662;BME280;30314;48.184;11.510;2023-04-02T15:36:38;95864.56;;;8.04;100.00
7662;BME280;30314;48.184;11.510;2023-04-02T15:39:28;95857.50;;;7.94;100.00
7662;BME280;30314;48.184;11.510;2023-04-02T15:45:14;95880.66;;;7.87;100.00
7662;BME280;30314;48.184;11.510;2023-04-02T15:48:25;95882.53;;;7.76;100.00
7662;BME280;30314;48.184;11.510;2023-04-02T15:53:32;95894.88;;;7.81;100.00
7662;BME280;30314;48.184;11.510;2023-04-02T15:56:12;95904.63;;;7.75;100.00
7662;BME280;30314;48.184;11.510;2023-04-02T15:59:07;95898.31;;;7.60;100.00
7662;BME280;30314;48.184;11.510;2023-04-02T16:10:17;95902.53;;;7.41;100.00
7662;BME280;30314;48.184;11.510;2023-04-02T16:13:29;95926.44;;;7.50;100.00
7662;BME280;30314;48.184;11.510;2023-04-02T16:16:14;95918.81;;;7.43;100.00
7662;BME280;30314;48.184;11.510;2023-04-02T16:18:48;95929.09;;;7.44;100.00
7662;BME280;30314;48.184;11.510;2023-04-02T16:21:23;95934.06;;;7.36;100.00
7662;BME280;30314;48.184;11.510;2023-04-02T16:23:53;95929.88;;;7.24;100.00
7662;BME280;30314;48.184;11.510;2023-04-02T16:26:31;95937.75;;;7.29;100.00
7662;BME280;30314;48.184;11.510;2023-04-02T16:29:47;95940.91;;;7.26;100.00
7662;BME280;30314;48.184;11.510;2023-04-02T16:32:34;95944.03;;;7.18;100.00
7662;BME280;30314;48.184;11.510;2023-04-02T16:35:21;95942.97;;;7.19;100.00
7662;BME280;30314;48.184;11.510;2023-04-02T16:38:17;95935.09;;;6.98;100.00
7662;BME280;30314;48.184;11.510;2023-04-02T16:44:16;95944.00;;;6.92;100.00
7662;BME280;30314;48.184;11.510;2023-04-02T16:46:53;95967.66;;;6.97;100.00
7662;BME280;30314;48.184;11.510;2023-04-02T16:55:09;95980.47;;;6.83;100.00
7662;BME280;30314;48.184;11.510;2023-04-02T17:00:33;95994.34;;;6.73;100.00